sensor_id;sensor_type;location;lat;lon;timestamp;P1;durP1;ratioP1;P2;durP2;ratioP2
41964;SDS011;50120;53.250;8.702;2022-08-19T00:01:30;10.38;;;5.95;;
41964;SDS011;50120;53.250;8.702;2022-08-19T00:03:57;11.10;;;6.53;;
41964;SDS011;50120;53.250;8.702;2022-08-19T00:06:25;12.40;;;6.35;;
41964;SDS011;50120;53.250;8.702;2022-08-19T00:08:54;10.52;;;6.18;;
41964;SDS011;50120;53.250;8.702;2022-08-19T00:11:21;14.10;;;6.18;;
41964;SDS011;50120;53.250;8.702;2022-08-19T00:13:47;14.93;;;7.10;;
41964;SDS011;50120;53.250;8.702;2022-08-19T00:16:15;11.00;;;6.78;;
41964;SDS011;50120;53.250;8.702;2022-08-19T00:18:46;10.07;;;6.65;;
41964;SDS011;50120;53.250;8.702;2022-08-19T00:21:13;11.63;;;7.25;;
41964;SDS011;50120;53.250;8.702;2022-08-19T00:23:39;10.88;;;6.75;;
41964;SDS011;50120;53.250;8.702;2022-08-19T00:26:06;13.27;;;7.75;;
41964;SDS011;50120;53.250;8.702;2022-08-19T00:28:32;12.80;;;6.97;;
41964;SDS011;50120;53.250;8.702;2022-08-19T00:31:01;15.07;;;8.48;;
41964;SDS011;50120;53.250;8.702;2022-08-19T00:33:28;13.15;;;7.10;;
41964;SDS011;50120;53.250;8.702;2022-08-19T00:35:57;12.07;;;7.50;;
41964;SDS011;50120;53.250;8.702;2022-08-19T00:38:24;15.85;;;7.15;;
41964;SDS011;50120;53.250;8.702;2022-08-19T00:40:50;12.55;;;7.60;;
41964;SDS011;50120;53.250;8.702;2022-08-19T00:43:18;14.45;;;7.40;;
41964;SDS011;50120;53.250;8.702;2022-08-19T00:45:47;13.13;;;7.20;;
41964;SDS011;50120;53.250;8.702;2022-08-19T00:48:13;10.68;;;7.75;;
41964;SDS011;50120;53.250;8.702;2022-08-19T00:50:40;14.35;;;7.65;;
41964;SDS011;50120;53.250;8.702;2022-08-19T00:53:08;10.82;;;7.18;;
41964;SDS011;50120;53.250;8.702;2022-08-19T00:55:35;11.75;;;6.60;;
41964;SDS011;50120;53.250;8.702;2022-08-19T00:58:05;13.35;;;7.35;;
41964;SDS011;50120;53.250;8.702;2022-08-19T01:00:33;10.57;;;6.82;;
41964;SDS011;50120;53.250;8.702;2022-08-19T01:03:04;12.88;;;6.55;;
41964;SDS011;50120;53.250;8.702;2022-08-19T01:05:35;12.43;;;7.00;;
41964;SDS011;50120;53.250;8.702;2022-08-19T01:08:02;9.30;;;6.75;;
41964;SDS011;50120;53.250;8.702;2022-08-19T01:10:32;12.23;;;6.72;;
41964;SDS011;50120;53.250;8.702;2022-08-19T01:13:01;10.73;;;6.72;;
41964;SDS011;50120;53.250;8.702;2022-08-19T01:15:30;13.90;;;7.05;;
41964;SDS011;50120;53.250;8.702;2022-08-19T01:18:00;12.32;;;6.53;;
41964;SDS011;50120;53.250;8.702;2022-08-19T01:20:27;9.90;;;6.68;;
41964;SDS011;50120;53.250;8.702;2022-08-19T01:22:54;11.82;;;6.53;;
41964;SDS011;50120;53.250;8.702;2022-08-19T01:25:24;10.80;;;5.90;;
41964;SDS011;50120;53.250;8.702;2022-08-19T01:27:57;9.77;;;5.57;;
41964;SDS011;50120;53.250;8.702;2022-08-19T01:30:25;11.20;;;5.78;;
41964;SDS011;50120;53.250;8.702;2022-08-19T01:32:54;8.85;;;6.30;;
41964;SDS011;50120;53.250;8.702;2022-08-19T01:35:21;8.60;;;6.57;;
41964;SDS011;50120;53.250;8.702;2022-08-19T01:37:51;12.05;;;6.80;;
41964;SDS011;50120;53.250;8.702;2022-08-19T01:40:21;9.57;;;6.30;;
41964;SDS011;50120;53.250;8.702;2022-08-19T01:42:51;11.75;;;5.85;;
41964;SDS011;50120;53.250;8.702;2022-08-19T01:45:18;10.23;;;5.90;;
41964;SDS011;50120;53.250;8.702;2022-08-19T01:47:45;12.30;;;7.70;;
41964;SDS011;50120;53.250;8.702;2022-08-19T01:50:12;8.68;;;5.90;;
41964;SDS011;50120;53.250;8.702;2022-08-19T01:52:39;12.75;;;6.43;;
41964;SDS011;50120;53.250;8.702;2022-08-19T01:55:08;8.93;;;6.28;;
41964;SDS011;50120;53.250;8.702;2022-08-19T01:57:36;9.02;;;5.25;;
41964;SDS011;50120;53.250;8.702;2022-08-19T02:00:05;10.90;;;5.93;;
41964;SDS011;50120;53.250;8.702;2022-08-19T02:02:33;11.63;;;6.30;;
41964;SDS011;50120;53.250;8.702;2022-08-19T02:04:59;11.60;;;6.18;;
41964;SDS011;50120;53.250;8.702;2022-08-19T02:07:25;9.43;;;6.13;;
41964;SDS011;50120;53.250;8.702;2022-08-19T02:09:50;11.90;;;6.43;;
41964;SDS011;50120;53.250;8.702;2022-08-19T02:12:16;11.13;;;7.13;;
41964;SDS011;50120;53.250;8.702;2022-08-19T02:14:42;11.40;;;6.93;;
41964;SDS011;50120;53.250;8.702;2022-08-19T02:17:08;10.27;;;6.55;;
41964;SDS011;50120;53.250;8.702;2022-08-19T02:19:34;11.23;;;6.60;;
41964;SDS011;50120;53.250;8.702;2022-08-19T02:22:00;10.75;;;6.80;;
41964;SDS011;50120;53.250;8.702;2022-08-19T02:24:26;9.13;;;6.53;;
41964;SDS011;50120;53.250;8.702;2022-08-19T02:26:52;10.52;;;7.25;;
41964;SDS011;50120;53.250;8.702;2022-08-19T02:29:19;11.60;;;6.45;;
41964;SDS011;50120;53.250;8.702;2022-08-19T02:31:45;7.97;;;6.25;;
41964;SDS011;50120;53.250;8.702;2022-08-19T02:34:11;10.55;;;6.28;;
41964;SDS011;50120;53.250;8.702;2022-08-19T02:36:37;11.55;;;6.88;;
41964;SDS011;50120;53.250;8.702;2022-08-19T02:39:03;11.55;;;7.50;;
41964;SDS011;50120;53.250;8.702;2022-08-19T02:41:30;11.85;;;6.50;;
41964;SDS011;50120;53.250;8.702;2022-08-19T02:43:58;9.20;;;6.63;;
41964;SDS011;50120;53.250;8.702;2022-08-19T02:46:26;10.43;;;6.43;;
41964;SDS011;50120;53.250;8.702;2022-08-19T02:49:00;10.65;;;6.18;;
41964;SDS011;50120;53.250;8.702;2022-08-19T02:51:34;10.80;;;6.38;;
41964;SDS011;50120;53.250;8.702;2022-08-19T02:54:03;10.57;;;6.57;;
41964;SDS011;50120;53.250;8.702;2022-08-19T02:56:30;13.40;;;7.05;;
41964;SDS011;50120;53.250;8.702;2022-08-19T02:58:56;11.50;;;6.65;;
41964;SDS011;50120;53.250;8.702;2022-08-19T03:01:24;11.27;;;6.10;;
41964;SDS011;50120;53.250;8.702;2022-08-19T03:03:53;9.27;;;6.35;;
41964;SDS011;50120;53.250;8.702;2022-08-19T03:06:19;11.65;;;8.00;;
41964;SDS011;50120;53.250;8.702;2022-08-19T03:08:46;12.45;;;7.25;;
41964;SDS011;50120;53.250;8.702;2022-08-19T03:11:36;13.10;;;7.35;;
41964;SDS011;50120;53.250;8.702;2022-08-19T03:14:01;14.23;;;7.60;;
41964;SDS011;50120;53.250;8.702;2022-08-19T03:16:30;11.90;;;6.88;;
41964;SDS011;50120;53.250;8.702;2022-08-19T03:18:58;18.48;;;7.90;;
41964;SDS011;50120;53.250;8.702;2022-08-19T03:21:26;10.20;;;6.50;;
41964;SDS011;50120;53.250;8.702;2022-08-19T03:23:53;10.63;;;7.07;;
41964;SDS011;50120;53.250;8.702;2022-08-19T03:26:20;9.15;;;6.35;;
41964;SDS011;50120;53.250;8.702;2022-08-19T03:28:46;11.27;;;7.00;;
41964;SDS011;50120;53.250;8.702;2022-08-19T03:31:15;10.50;;;6.85;;
41964;SDS011;50120;53.250;8.702;2022-08-19T03:33:43;11.75;;;7.20;;
41964;SDS011;50120;53.250;8.702;2022-08-19T03:36:13;12.73;;;7.35;;
41964;SDS011;50120;53.250;8.702;2022-08-19T03:38:46;14.10;;;8.40;;
41964;SDS011;50120;53.250;8.702;2022-08-19T03:41:15;11.98;;;7.75;;
41964;SDS011;50120;53.250;8.702;2022-08-19T03:43:44;12.45;;;7.30;;
41964;SDS011;50120;53.250;8.702;2022-08-19T03:46:15;11.43;;;6.90;;
41964;SDS011;50120;53.250;8.702;2022-08-19T03:48:47;12.52;;;7.05;;
41964;SDS011;50120;53.250;8.702;2022-08-19T03:51:18;12.77;;;7.00;;
41964;SDS011;50120;53.250;8.702;2022-08-19T03:53:45;9.65;;;6.45;;
41964;SDS011;50120;53.250;8.702;2022-08-19T03:56:12;10.48;;;6.10;;
41964;SDS011;50120;53.250;8.702;2022-08-19T03:58:39;7.63;;;5.05;;
41964;SDS011;50120;53.250;8.702;2022-08-19T04:01:09;8.65;;;5.15;;
41964;SDS011;50120;53.250;8.702;2022-08-19T04:03:36;7.22;;;4.72;;
41964;SDS011;50120;53.250;8.702;2022-08-19T04:06:12;10.27;;;5.13;;
41964;SDS011;50120;53.250;8.702;2022-08-19T04:08:40;5.97;;;4.57;;
41964;SDS011;50120;53.250;8.702;2022-08-19T04:11:11;6.60;;;4.70;;
41964;SDS011;50120;53.250;8.702;2022-08-19T04:13:38;10.32;;;5.43;;
41964;SDS011;50120;53.250;8.702;2022-08-19T04:16:05;9.45;;;5.00;;
41964;SDS011;50120;53.250;8.702;2022-08-19T04:18:32;8.00;;;4.55;;
41964;SDS011;50120;53.250;8.702;2022-08-19T04:20:59;7.45;;;4.35;;
41964;SDS011;50120;53.250;8.702;2022-08-19T04:23:26;8.05;;;4.65;;
41964;SDS011;50120;53.250;8.702;2022-08-19T04:25:53;5.85;;;4.30;;
41964;SDS011;50120;53.250;8.702;2022-08-19T04:28:20;6.93;;;4.80;;
41964;SDS011;50120;53.250;8.702;2022-08-19T04:30:47;8.05;;;4.63;;
41964;SDS011;50120;53.250;8.702;2022-08-19T04:33:16;8.00;;;4.60;;
41964;SDS011;50120;53.250;8.702;2022-08-19T04:35:46;6.18;;;4.82;;
41964;SDS011;50120;53.250;8.702;2022-08-19T04:38:14;10.40;;;5.35;;
41964;SDS011;50120;53.250;8.702;2022-08-19T04:40:45;9.93;;;5.50;;
41964;SDS011;50120;53.250;8.702;2022-08-19T04:43:32;8.95;;;4.45;;
41964;SDS011;50120;53.250;8.702;2022-08-19T04:46:11;9.77;;;5.65;;
41964;SDS011;50120;53.250;8.702;2022-08-19T04:48:38;8.70;;;5.38;;
41964;SDS011;50120;53.250;8.702;2022-08-19T04:53:59;8.38;;;4.82;;
41964;SDS011;50120;53.250;8.702;2022-08-19T04:56:26;6.68;;;4.30;;
41964;SDS011;50120;53.250;8.702;2022-08-19T04:58:53;6.45;;;4.45;;
41964;SDS011;50120;53.250;8.702;2022-08-19T05:01:22;8.10;;;6.03;;
41964;SDS011;50120;53.250;8.702;2022-08-19T05:03:50;11.38;;;7.07;;
41964;SDS011;50120;53.250;8.702;2022-08-19T05:06:17;14.35;;;8.00;;
41964;SDS011;50120;53.250;8.702;2022-08-19T05:08:45;12.32;;;7.45;;
41964;SDS011;50120;53.250;8.702;2022-08-19T05:11:15;13.88;;;8.65;;
41964;SDS011;50120;53.250;8.702;2022-08-19T05:13:45;12.07;;;8.18;;
41964;SDS011;50120;53.250;8.702;2022-08-19T05:16:12;12.85;;;8.18;;
41964;SDS011;50120;53.250;8.702;2022-08-19T05:18:38;13.65;;;8.43;;
41964;SDS011;50120;53.250;8.702;2022-08-19T05:21:24;15.07;;;9.65;;
41964;SDS011;50120;53.250;8.702;2022-08-19T05:24:09;12.23;;;8.75;;
41964;SDS011;50120;53.250;8.702;2022-08-19T05:26:36;16.08;;;9.02;;
41964;SDS011;50120;53.250;8.702;2022-08-19T05:29:03;14.77;;;9.88;;
41964;SDS011;50120;53.250;8.702;2022-08-19T05:31:29;17.83;;;10.43;;
41964;SDS011;50120;53.250;8.702;2022-08-19T05:33:55;12.88;;;8.35;;
41964;SDS011;50120;53.250;8.702;2022-08-19T05:36:24;14.73;;;9.38;;
41964;SDS011;50120;53.250;8.702;2022-08-19T05:38:50;14.35;;;8.88;;
41964;SDS011;50120;53.250;8.702;2022-08-19T05:41:18;13.85;;;9.82;;
41964;SDS011;50120;53.250;8.702;2022-08-19T05:43:44;16.05;;;9.75;;
41964;SDS011;50120;53.250;8.702;2022-08-19T05:46:15;15.43;;;9.43;;
41964;SDS011;50120;53.250;8.702;2022-08-19T05:48:44;13.93;;;8.87;;
41964;SDS011;50120;53.250;8.702;2022-08-19T05:51:11;13.50;;;8.48;;
41964;SDS011;50120;53.250;8.702;2022-08-19T05:53:37;14.73;;;8.68;;
41964;SDS011;50120;53.250;8.702;2022-08-19T05:56:04;13.55;;;8.25;;
41964;SDS011;50120;53.250;8.702;2022-08-19T05:58:35;19.30;;;8.40;;
41964;SDS011;50120;53.250;8.702;2022-08-19T06:01:02;16.35;;;9.20;;
41964;SDS011;50120;53.250;8.702;2022-08-19T06:03:32;12.68;;;8.60;;
41964;SDS011;50120;53.250;8.702;2022-08-19T06:05:58;13.98;;;8.60;;
41964;SDS011;50120;53.250;8.702;2022-08-19T06:08:25;13.02;;;8.45;;
41964;SDS011;50120;53.250;8.702;2022-08-19T06:10:52;14.70;;;8.40;;
41964;SDS011;50120;53.250;8.702;2022-08-19T06:13:18;12.77;;;8.07;;
41964;SDS011;50120;53.250;8.702;2022-08-19T06:15:44;14.05;;;8.15;;
41964;SDS011;50120;53.250;8.702;2022-08-19T06:18:11;15.05;;;8.63;;
41964;SDS011;50120;53.250;8.702;2022-08-19T06:20:38;12.85;;;8.50;;
41964;SDS011;50120;53.250;8.702;2022-08-19T06:23:05;13.10;;;8.20;;
41964;SDS011;50120;53.250;8.702;2022-08-19T06:25:31;11.75;;;7.90;;
41964;SDS011;50120;53.250;8.702;2022-08-19T06:27:59;12.88;;;8.63;;
41964;SDS011;50120;53.250;8.702;2022-08-19T06:30:24;16.08;;;8.35;;
41964;SDS011;50120;53.250;8.702;2022-08-19T06:32:50;10.75;;;7.43;;
41964;SDS011;50120;53.250;8.702;2022-08-19T06:35:16;12.65;;;7.38;;
41964;SDS011;50120;53.250;8.702;2022-08-19T06:37:42;14.90;;;8.30;;
41964;SDS011;50120;53.250;8.702;2022-08-19T06:40:09;9.38;;;6.82;;
41964;SDS011;50120;53.250;8.702;2022-08-19T06:42:36;11.50;;;8.07;;
41964;SDS011;50120;53.250;8.702;2022-08-19T06:45:05;13.35;;;6.90;;
41964;SDS011;50120;53.250;8.702;2022-08-19T06:47:33;11.50;;;8.40;;
41964;SDS011;50120;53.250;8.702;2022-08-19T06:49:59;11.40;;;7.25;;
41964;SDS011;50120;53.250;8.702;2022-08-19T06:52:28;10.60;;;6.97;;
41964;SDS011;50120;53.250;8.702;2022-08-19T06:54:58;13.27;;;6.78;;
41964;SDS011;50120;53.250;8.702;2022-08-19T06:57:25;11.93;;;6.35;;
41964;SDS011;50120;53.250;8.702;2022-08-19T06:59:53;10.02;;;5.97;;
41964;SDS011;50120;53.250;8.702;2022-08-19T07:02:20;11.80;;;6.93;;
41964;SDS011;50120;53.250;8.702;2022-08-19T07:04:51;11.82;;;7.00;;
41964;SDS011;50120;53.250;8.702;2022-08-19T07:07:17;10.55;;;6.25;;
41964;SDS011;50120;53.250;8.702;2022-08-19T07:09:44;7.85;;;4.85;;
41964;SDS011;50120;53.250;8.702;2022-08-19T07:12:11;8.73;;;5.30;;
41964;SDS011;50120;53.250;8.702;2022-08-19T07:14:41;9.43;;;6.15;;
41964;SDS011;50120;53.250;8.702;2022-08-19T07:17:10;6.00;;;4.50;;
41964;SDS011;50120;53.250;8.702;2022-08-19T07:19:37;7.40;;;4.88;;
41964;SDS011;50120;53.250;8.702;2022-08-19T07:22:05;7.72;;;4.43;;
41964;SDS011;50120;53.250;8.702;2022-08-19T07:24:32;6.93;;;4.63;;
41964;SDS011;50120;53.250;8.702;2022-08-19T07:26:59;8.75;;;5.13;;
41964;SDS011;50120;53.250;8.702;2022-08-19T07:29:31;8.13;;;5.22;;
41964;SDS011;50120;53.250;8.702;2022-08-19T07:31:58;7.10;;;4.60;;
41964;SDS011;50120;53.250;8.702;2022-08-19T07:34:26;13.65;;;5.13;;
41964;SDS011;50120;53.250;8.702;2022-08-19T07:36:53;5.82;;;3.80;;
41964;SDS011;50120;53.250;8.702;2022-08-19T07:39:25;6.93;;;3.55;;
41964;SDS011;50120;53.250;8.702;2022-08-19T07:41:53;3.95;;;2.72;;
41964;SDS011;50120;53.250;8.702;2022-08-19T07:44:20;5.00;;;2.80;;
41964;SDS011;50120;53.250;8.702;2022-08-19T07:46:47;3.65;;;2.38;;
41964;SDS011;50120;53.250;8.702;2022-08-19T07:49:15;5.45;;;3.20;;
41964;SDS011;50120;53.250;8.702;2022-08-19T07:52:04;5.47;;;2.42;;
41964;SDS011;50120;53.250;8.702;2022-08-19T07:54:32;4.68;;;2.60;;
41964;SDS011;50120;53.250;8.702;2022-08-19T07:57:00;4.22;;;2.72;;
41964;SDS011;50120;53.250;8.702;2022-08-19T07:59:26;3.95;;;2.40;;
41964;SDS011;50120;53.250;8.702;2022-08-19T08:01:54;3.50;;;2.50;;
41964;SDS011;50120;53.250;8.702;2022-08-19T08:04:20;3.45;;;2.15;;
41964;SDS011;50120;53.250;8.702;2022-08-19T08:07:05;3.65;;;2.50;;
41964;SDS011;50120;53.250;8.702;2022-08-19T08:09:50;3.30;;;2.40;;
41964;SDS011;50120;53.250;8.702;2022-08-19T08:12:24;4.05;;;2.20;;
41964;SDS011;50120;53.250;8.702;2022-08-19T08:14:56;7.15;;;2.40;;
41964;SDS011;50120;53.250;8.702;2022-08-19T08:17:27;5.35;;;1.90;;
41964;SDS011;50120;53.250;8.702;2022-08-19T08:19:54;5.22;;;1.90;;
41964;SDS011;50120;53.250;8.702;2022-08-19T08:22:21;2.92;;;2.03;;
41964;SDS011;50120;53.250;8.702;2022-08-19T08:25:07;2.88;;;1.80;;
41964;SDS011;50120;53.250;8.702;2022-08-19T08:27:39;3.88;;;2.05;;
41964;SDS011;50120;53.250;8.702;2022-08-19T08:30:09;2.67;;;1.70;;
41964;SDS011;50120;53.250;8.702;2022-08-19T08:32:37;3.17;;;1.50;;
41964;SDS011;50120;53.250;8.702;2022-08-19T08:35:04;2.17;;;1.50;;
41964;SDS011;50120;53.250;8.702;2022-08-19T08:37:32;4.13;;;2.00;;
41964;SDS011;50120;53.250;8.702;2022-08-19T08:39:58;2.55;;;1.67;;
41964;SDS011;50120;53.250;8.702;2022-08-19T08:42:30;3.20;;;1.80;;
41964;SDS011;50120;53.250;8.702;2022-08-19T08:45:11;2.95;;;1.75;;
41964;SDS011;50120;53.250;8.702;2022-08-19T08:47:41;3.30;;;1.70;;
41964;SDS011;50120;53.250;8.702;2022-08-19T08:50:16;4.22;;;1.67;;
41964;SDS011;50120;53.250;8.702;2022-08-19T08:52:47;3.35;;;1.63;;
41964;SDS011;50120;53.250;8.702;2022-08-19T08:55:19;3.60;;;1.90;;
41964;SDS011;50120;53.250;8.702;2022-08-19T09:00:27;3.10;;;2.03;;
41964;SDS011;50120;53.250;8.702;2022-08-19T09:02:59;4.00;;;1.60;;
41964;SDS011;50120;53.250;8.702;2022-08-19T09:08:30;2.65;;;1.52;;
41964;SDS011;50120;53.250;8.702;2022-08-19T09:11:03;3.00;;;1.73;;
41964;SDS011;50120;53.250;8.702;2022-08-19T09:16:37;6.90;;;1.70;;
41964;SDS011;50120;53.250;8.702;2022-08-19T09:19:06;1.58;;;1.33;;
41964;SDS011;50120;53.250;8.702;2022-08-19T09:21:33;1.67;;;1.40;;
41964;SDS011;50120;53.250;8.702;2022-08-19T09:24:00;1.88;;;1.50;;
41964;SDS011;50120;53.250;8.702;2022-08-19T09:26:27;5.68;;;1.75;;
41964;SDS011;50120;53.250;8.702;2022-08-19T09:28:53;3.90;;;1.65;;
41964;SDS011;50120;53.250;8.702;2022-08-19T09:31:23;4.35;;;1.58;;
41964;SDS011;50120;53.250;8.702;2022-08-19T09:33:51;3.10;;;1.50;;
41964;SDS011;50120;53.250;8.702;2022-08-19T09:36:20;2.42;;;1.48;;
41964;SDS011;50120;53.250;8.702;2022-08-19T09:38:47;6.15;;;1.40;;
41964;SDS011;50120;53.250;8.702;2022-08-19T09:41:16;3.10;;;1.45;;
41964;SDS011;50120;53.250;8.702;2022-08-19T09:43:45;2.03;;;1.42;;
41964;SDS011;50120;53.250;8.702;2022-08-19T09:46:14;7.63;;;1.75;;
41964;SDS011;50120;53.250;8.702;2022-08-19T09:48:46;1.50;;;1.40;;
41964;SDS011;50120;53.250;8.702;2022-08-19T09:51:18;1.90;;;1.27;;
41964;SDS011;50120;53.250;8.702;2022-08-19T09:53:49;1.92;;;1.30;;
41964;SDS011;50120;53.250;8.702;2022-08-19T09:56:17;1.83;;;1.30;;
41964;SDS011;50120;53.250;8.702;2022-08-19T09:58:44;2.55;;;1.45;;
41964;SDS011;50120;53.250;8.702;2022-08-19T10:01:15;2.28;;;1.30;;
41964;SDS011;50120;53.250;8.702;2022-08-19T10:03:43;2.15;;;1.30;;
41964;SDS011;50120;53.250;8.702;2022-08-19T10:06:12;2.33;;;1.27;;
41964;SDS011;50120;53.250;8.702;2022-08-19T10:08:37;2.22;;;1.35;;
41964;SDS011;50120;53.250;8.702;2022-08-19T10:11:04;3.33;;;1.70;;
41964;SDS011;50120;53.250;8.702;2022-08-19T10:13:31;2.47;;;1.27;;
41964;SDS011;50120;53.250;8.702;2022-08-19T10:16:06;2.33;;;1.20;;
41964;SDS011;50120;53.250;8.702;2022-08-19T10:18:35;2.88;;;1.27;;
41964;SDS011;50120;53.250;8.702;2022-08-19T10:21:06;4.05;;;1.45;;
41964;SDS011;50120;53.250;8.702;2022-08-19T10:23:39;2.30;;;1.00;;
41964;SDS011;50120;53.250;8.702;2022-08-19T10:26:11;2.53;;;1.20;;
41964;SDS011;50120;53.250;8.702;2022-08-19T10:28:39;2.75;;;1.30;;
41964;SDS011;50120;53.250;8.702;2022-08-19T10:31:10;2.20;;;1.13;;
41964;SDS011;50120;53.250;8.702;2022-08-19T10:33:37;1.85;;;1.27;;
41964;SDS011;50120;53.250;8.702;2022-08-19T10:36:05;2.35;;;1.38;;
41964;SDS011;50120;53.250;8.702;2022-08-19T10:38:37;2.33;;;1.27;;
41964;SDS011;50120;53.250;8.702;2022-08-19T10:41:22;1.92;;;1.33;;
41964;SDS011;50120;53.250;8.702;2022-08-19T10:43:57;2.42;;;1.42;;
41964;SDS011;50120;53.250;8.702;2022-08-19T10:46:25;2.20;;;1.23;;
41964;SDS011;50120;53.250;8.702;2022-08-19T10:48:52;1.90;;;1.15;;
41964;SDS011;50120;53.250;8.702;2022-08-19T10:51:19;2.30;;;0.98;;
41964;SDS011;50120;53.250;8.702;2022-08-19T10:54:04;4.43;;;1.05;;
41964;SDS011;50120;53.250;8.702;2022-08-19T10:56:30;2.17;;;1.33;;
41964;SDS011;50120;53.250;8.702;2022-08-19T10:59:16;2.00;;;1.08;;
41964;SDS011;50120;53.250;8.702;2022-08-19T11:01:44;1.48;;;0.95;;
41964;SDS011;50120;53.250;8.702;2022-08-19T11:04:10;1.90;;;1.10;;
41964;SDS011;50120;53.250;8.702;2022-08-19T11:06:41;2.65;;;1.30;;
41964;SDS011;50120;53.250;8.702;2022-08-19T11:09:08;1.58;;;1.27;;
41964;SDS011;50120;53.250;8.702;2022-08-19T11:11:34;1.10;;;1.00;;
41964;SDS011;50120;53.250;8.702;2022-08-19T11:14:05;4.22;;;1.30;;
41964;SDS011;50120;53.250;8.702;2022-08-19T11:16:35;1.98;;;1.10;;
41964;SDS011;50120;53.250;8.702;2022-08-19T11:19:02;1.40;;;1.10;;
41964;SDS011;50120;53.250;8.702;2022-08-19T11:21:30;1.90;;;1.13;;
41964;SDS011;50120;53.250;8.702;2022-08-19T11:23:59;2.17;;;1.10;;
41964;SDS011;50120;53.250;8.702;2022-08-19T11:26:27;1.00;;;0.90;;
41964;SDS011;50120;53.250;8.702;2022-08-19T11:28:55;1.77;;;0.80;;
41964;SDS011;50120;53.250;8.702;2022-08-19T11:31:26;1.30;;;0.98;;
41964;SDS011;50120;53.250;8.702;2022-08-19T11:33:55;1.80;;;1.10;;
41964;SDS011;50120;53.250;8.702;2022-08-19T11:36:22;2.13;;;1.10;;
41964;SDS011;50120;53.250;8.702;2022-08-19T11:38:48;1.25;;;0.95;;
41964;SDS011;50120;53.250;8.702;2022-08-19T11:41:16;0.82;;;0.82;;
41964;SDS011;50120;53.250;8.702;2022-08-19T11:43:43;0.93;;;0.80;;
41964;SDS011;50120;53.250;8.702;2022-08-19T11:46:10;1.13;;;0.98;;
41964;SDS011;50120;53.250;8.702;2022-08-19T11:48:38;2.22;;;1.00;;
41964;SDS011;50120;53.250;8.702;2022-08-19T11:51:14;1.70;;;1.20;;
41964;SDS011;50120;53.250;8.702;2022-08-19T11:53:41;2.15;;;1.00;;
41964;SDS011;50120;53.250;8.702;2022-08-19T11:56:07;1.90;;;0.95;;
41964;SDS011;50120;53.250;8.702;2022-08-19T11:58:35;1.33;;;0.80;;
41964;SDS011;50120;53.250;8.702;2022-08-19T12:01:01;0.85;;;0.82;;
41964;SDS011;50120;53.250;8.702;2022-08-19T12:03:30;4.90;;;0.90;;
41964;SDS011;50120;53.250;8.702;2022-08-19T12:05:55;1.58;;;0.90;;
41964;SDS011;50120;53.250;8.702;2022-08-19T12:08:21;3.78;;;1.02;;
41964;SDS011;50120;53.250;8.702;2022-08-19T12:10:47;2.20;;;1.00;;
41964;SDS011;50120;53.250;8.702;2022-08-19T12:13:13;2.53;;;0.90;;
41964;SDS011;50120;53.250;8.702;2022-08-19T12:15:43;2.67;;;0.90;;
41964;SDS011;50120;53.250;8.702;2022-08-19T12:18:10;1.48;;;0.88;;
41964;SDS011;50120;53.250;8.702;2022-08-19T12:20:39;2.13;;;0.80;;
41964;SDS011;50120;53.250;8.702;2022-08-19T12:23:07;1.20;;;0.60;;
41964;SDS011;50120;53.250;8.702;2022-08-19T12:25:35;2.53;;;0.80;;
41964;SDS011;50120;53.250;8.702;2022-08-19T12:28:01;1.58;;;0.60;;
41964;SDS011;50120;53.250;8.702;2022-08-19T12:30:28;1.23;;;0.50;;
41964;SDS011;50120;53.250;8.702;2022-08-19T12:32:54;0.50;;;0.45;;
41964;SDS011;50120;53.250;8.702;2022-08-19T12:35:20;0.52;;;0.50;;
41964;SDS011;50120;53.250;8.702;2022-08-19T12:37:47;0.73;;;0.40;;
41964;SDS011;50120;53.250;8.702;2022-08-19T12:40:14;0.88;;;0.60;;
41964;SDS011;50120;53.250;8.702;2022-08-19T12:42:42;1.35;;;0.70;;
41964;SDS011;50120;53.250;8.702;2022-08-19T12:45:09;1.85;;;0.60;;
41964;SDS011;50120;53.250;8.702;2022-08-19T12:47:36;2.03;;;0.70;;
41964;SDS011;50120;53.250;8.702;2022-08-19T12:50:02;3.00;;;0.60;;
41964;SDS011;50120;53.250;8.702;2022-08-19T12:52:33;1.40;;;0.73;;
41964;SDS011;50120;53.250;8.702;2022-08-19T12:55:03;0.63;;;0.63;;
41964;SDS011;50120;53.250;8.702;2022-08-19T12:57:30;1.05;;;0.50;;
41964;SDS011;50120;53.250;8.702;2022-08-19T12:59:59;1.40;;;0.63;;
41964;SDS011;50120;53.250;8.702;2022-08-19T13:02:38;1.02;;;0.65;;
41964;SDS011;50120;53.250;8.702;2022-08-19T13:05:09;0.70;;;0.60;;
41964;SDS011;50120;53.250;8.702;2022-08-19T13:07:36;0.50;;;0.50;;
41964;SDS011;50120;53.250;8.702;2022-08-19T13:10:04;0.60;;;0.60;;
41964;SDS011;50120;53.250;8.702;2022-08-19T13:12:35;2.58;;;0.50;;
41964;SDS011;50120;53.250;8.702;2022-08-19T13:15:04;0.65;;;0.57;;
41964;SDS011;50120;53.250;8.702;2022-08-19T13:17:33;0.60;;;0.50;;
41964;SDS011;50120;53.250;8.702;2022-08-19T13:19:59;0.93;;;0.50;;
41964;SDS011;50120;53.250;8.702;2022-08-19T13:22:25;1.25;;;0.68;;
41964;SDS011;50120;53.250;8.702;2022-08-19T13:24:51;0.75;;;0.65;;
41964;SDS011;50120;53.250;8.702;2022-08-19T13:27:17;1.67;;;0.63;;
41964;SDS011;50120;53.250;8.702;2022-08-19T13:29:43;0.50;;;0.50;;
41964;SDS011;50120;53.250;8.702;2022-08-19T13:32:28;0.50;;;0.50;;
41964;SDS011;50120;53.250;8.702;2022-08-19T13:35:13;1.67;;;0.70;;
41964;SDS011;50120;53.250;8.702;2022-08-19T13:37:40;1.20;;;0.63;;
41964;SDS011;50120;53.250;8.702;2022-08-19T13:40:07;0.60;;;0.60;;
41964;SDS011;50120;53.250;8.702;2022-08-19T13:42:47;0.60;;;0.60;;
41964;SDS011;50120;53.250;8.702;2022-08-19T13:45:23;1.02;;;0.70;;
41964;SDS011;50120;53.250;8.702;2022-08-19T13:47:52;9.38;;;1.00;;
41964;SDS011;50120;53.250;8.702;2022-08-19T13:50:22;1.67;;;0.60;;
41964;SDS011;50120;53.250;8.702;2022-08-19T13:52:53;1.48;;;0.68;;
41964;SDS011;50120;53.250;8.702;2022-08-19T13:55:20;3.03;;;2.22;;
41964;SDS011;50120;53.250;8.702;2022-08-19T13:57:50;4.43;;;3.17;;
41964;SDS011;50120;53.250;8.702;2022-08-19T14:00:17;3.70;;;2.70;;
41964;SDS011;50120;53.250;8.702;2022-08-19T14:02:45;3.15;;;1.35;;
41964;SDS011;50120;53.250;8.702;2022-08-19T14:05:13;1.77;;;0.98;;
41964;SDS011;50120;53.250;8.702;2022-08-19T14:07:40;5.55;;;4.40;;
41964;SDS011;50120;53.250;8.702;2022-08-19T14:10:07;7.88;;;5.20;;
41964;SDS011;50120;53.250;8.702;2022-08-19T14:12:35;2.90;;;1.75;;
41964;SDS011;50120;53.250;8.702;2022-08-19T14:15:02;1.25;;;1.13;;
41964;SDS011;50120;53.250;8.702;2022-08-19T14:17:29;3.88;;;1.10;;
41964;SDS011;50120;53.250;8.702;2022-08-19T14:19:58;5.80;;;4.18;;
41964;SDS011;50120;53.250;8.702;2022-08-19T14:22:30;2.97;;;2.17;;
41964;SDS011;50120;53.250;8.702;2022-08-19T14:24:56;1.77;;;1.20;;
41964;SDS011;50120;53.250;8.702;2022-08-19T14:27:24;1.80;;;0.90;;
41964;SDS011;50120;53.250;8.702;2022-08-19T14:29:53;1.75;;;0.98;;
41964;SDS011;50120;53.250;8.702;2022-08-19T14:32:20;1.45;;;0.90;;
41964;SDS011;50120;53.250;8.702;2022-08-19T14:34:46;2.42;;;1.77;;
41964;SDS011;50120;53.250;8.702;2022-08-19T14:37:12;2.08;;;1.05;;
41964;SDS011;50120;53.250;8.702;2022-08-19T14:39:40;2.22;;;1.30;;
41964;SDS011;50120;53.250;8.702;2022-08-19T14:42:07;2.58;;;2.08;;
41964;SDS011;50120;53.250;8.702;2022-08-19T14:44:33;4.82;;;2.80;;
41964;SDS011;50120;53.250;8.702;2022-08-19T14:47:00;2.97;;;1.70;;
41964;SDS011;50120;53.250;8.702;2022-08-19T14:49:25;2.45;;;1.17;;
41964;SDS011;50120;53.250;8.702;2022-08-19T14:51:51;2.42;;;1.10;;
41964;SDS011;50120;53.250;8.702;2022-08-19T14:54:17;1.15;;;1.00;;
41964;SDS011;50120;53.250;8.702;2022-08-19T14:56:43;8.25;;;1.70;;
41964;SDS011;50120;53.250;8.702;2022-08-19T14:59:09;1.55;;;1.10;;
41964;SDS011;50120;53.250;8.702;2022-08-19T15:01:36;1.15;;;0.90;;
41964;SDS011;50120;53.250;8.702;2022-08-19T15:04:02;2.78;;;0.80;;